Time;durP1;ratioP1;P1;durP2;ratioP2;P2;SDS_P1;SDS_P2;PMS_P1;PMS_P2;Temp;Humidity;BMP_temperature;BMP_pressure;BME280_temperature;BME280_humidity;BME280_pressure;Samples;Min_cycle;Max_cycle;Signal;HPM_P1;HPM_P2
2021/11/18 00:00:57;;;;;;;32.75;19.62;;;;;;;5.95;66.91;97686.23;1587457;89;25699;-85
2021/11/18 00:03:25;;;;;;;28.10;17.48;;;;;;;5.89;66.86;97689.13;1587364;89;28077;-85
2021/11/18 00:05:52;;;;;;;26.00;16.73;;;;;;;5.86;66.89;97692.11;1587315;89;25829;-85
2021/11/18 00:08:20;;;;;;;24.00;15.43;;;;;;;5.86;66.85;97688.09;1587374;89;25797;-85
2021/11/18 00:10:52;;;;;;;24.32;15.10;;;;;;;5.87;66.84;97682.23;1587429;89;25795;-85
2021/11/18 00:13:23;;;;;;;27.35;15.68;;;;;;;5.87;66.93;97685.75;1587542;89;25902;-86
2021/11/18 00:15:50;;;;;;;21.80;14.18;;;;;;;5.88;66.98;97687.92;1587411;89;27394;-86
2021/11/18 00:18:21;;;;;;;21.93;14.35;;;;;;;5.87;66.86;97693.78;1588949;89;25726;-85
2021/11/18 00:20:52;;;;;;;21.60;14.63;;;;;;;5.83;66.80;97694.30;1589088;89;25751;-85
2021/11/18 00:23:20;;;;;;;22.10;14.93;;;;;;;5.82;66.94;97695.30;1589689;88;25776;-85
2021/11/18 00:25:47;;;;;;;21.15;14.33;;;;;;;5.82;66.89;97697.98;1592620;88;25847;-85
2021/11/18 00:28:14;;;;;;;21.25;13.78;;;;;;;5.79;66.85;97700.53;1587354;89;28046;-85
2021/11/18 00:30:42;;;;;;;19.92;12.25;;;;;;;5.71;66.80;97700.03;1602960;88;25855;-85
2021/11/18 00:33:10;;;;;;;18.00;12.65;;;;;;;5.67;66.81;97703.25;1598561;88;25736;-85
2021/11/18 00:35:37;;;;;;;17.60;11.30;;;;;;;5.73;66.88;97714.60;1594775;89;26571;-84
2021/11/18 00:38:05;;;;;;;16.57;11.38;;;;;;;5.71;66.82;97716.61;1592992;89;25816;-85
2021/11/18 00:40:37;;;;;;;18.55;11.75;;;;;;;5.70;66.80;97725.66;1595365;88;27541;-86
2021/11/18 00:43:07;;;;;;;14.43;9.95;;;;;;;5.70;66.73;97722.97;1592362;89;25914;-85
2021/11/18 00:45:34;;;;;;;14.73;9.88;;;;;;;5.68;66.66;97725.82;1620090;88;25866;-86
2021/11/18 00:48:01;;;;;;;15.23;9.78;;;;;;;5.67;66.64;97732.72;1628173;86;25784;-85
2021/11/18 00:50:33;;;;;;;17.57;10.03;;;;;;;5.66;66.59;97735.06;1616037;87;25781;-85
2021/11/18 00:53:00;;;;;;;12.43;8.93;;;;;;;5.65;66.54;97732.05;1630120;87;27472;-85
2021/11/18 00:55:29;;;;;;;15.93;9.23;;;;;;;5.66;66.52;97736.40;1627970;87;25789;-85
2021/11/18 00:57:56;;;;;;;13.98;9.20;;;;;;;5.67;66.53;97738.07;1628837;86;25763;-85
2021/11/18 01:00:27;;;;;;;13.28;9.18;;;;;;;5.65;66.42;97741.42;1616051;87;25736;-85
2021/11/18 01:02:55;;;;;;;12.45;8.65;;;;;;;5.66;66.45;97741.76;1615980;88;25723;-85
2021/11/18 01:05:28;;;;;;;13.03;8.75;;;;;;;5.66;66.38;97733.22;1628713;86;27429;-84
2021/11/18 01:07:56;;;;;;;;;;;;;;;5.66;66.34;97743.09;1616476;88;25969;-85
2021/11/18 01:10:27;;;;;;;10.90;7.85;;;;;;;5.66;66.37;97741.76;1624000;87;25922;-85
2021/11/18 01:12:53;;;;;;;14.00;8.90;;;;;;;5.62;66.36;97744.44;1625552;87;26582;-84
2021/11/18 01:15:25;;;;;;;10.63;7.42;;;;;;;5.61;66.37;97751.63;1632093;87;25858;-85
2021/11/18 01:17:52;;;;;;;13.60;7.85;;;;;;;5.61;66.34;97750.80;1642503;87;27339;-84
2021/11/18 01:20:23;;;;;;;12.13;7.83;;;;;;;5.61;66.30;97754.81;1642243;87;25733;-85
2021/11/18 01:22:52;;;;;;;11.68;8.35;;;;;;;5.61;66.33;97762.84;1642303;87;25794;-85
2021/11/18 01:25:19;;;;;;;11.93;7.90;;;;;;;5.58;66.32;97756.48;1642258;87;26494;-85
2021/11/18 01:27:46;;;;;;;11.30;7.72;;;;;;;5.57;66.34;97762.84;1642381;87;25771;-85
2021/11/18 01:30:20;;;;;;;12.78;7.67;;;;;;;5.56;66.42;97763.34;1642236;87;28198;-85
2021/11/18 01:32:49;;;;;;;12.03;8.35;;;;;;;5.57;66.40;97758.83;1642192;87;25906;-85
2021/11/18 01:35:16;;;;;;;11.80;7.78;;;;;;;5.54;66.50;97768.06;1632101;86;25693;-85
2021/11/18 01:37:42;;;;;;;22.25;11.88;;;;;;;5.54;66.55;97769.91;1627315;87;26297;-86
2021/11/18 01:40:14;;;;;;;15.03;9.65;;;;;;;5.54;66.65;97769.91;1628252;87;25789;-85
2021/11/18 01:42:41;;;;;;;14.85;9.55;;;;;;;5.52;66.67;97768.73;1631042;87;27481;-86
2021/11/18 01:45:11;;;;;;;14.93;9.28;;;;;;;5.52;66.86;97765.22;1639039;87;25820;-85
2021/11/18 01:47:37;;;;;;;13.90;8.43;;;;;;;5.55;66.96;97762.21;1642443;87;25881;-86
2021/11/18 01:50:08;;;;;;;16.75;10.10;;;;;;;5.56;66.96;97763.34;1642463;87;25783;-86
2021/11/18 01:52:35;;;;;;;13.85;8.93;;;;;;;5.57;67.08;97770.88;1636050;87;26429;-85
2021/11/18 01:55:04;;;;;;;12.85;9.03;;;;;;;5.58;67.04;97778.75;1642480;87;27570;-85
2021/11/18 01:57:34;;;;;;;13.32;8.80;;;;;;;5.58;66.99;97781.93;1642398;87;25856;-86
2021/11/18 02:00:00;;;;;;;15.00;9.50;;;;;;;5.51;67.10;97779.61;1642480;87;25779;-86
2021/11/18 02:02:28;;;;;;;14.90;9.90;;;;;;;5.50;67.30;97776.09;1642470;87;25819;-85
2021/11/18 02:05:10;;;;;;;14.60;9.80;;;;;;;5.51;67.45;97780.95;1642539;87;26425;-86
2021/11/18 02:07:45;;;;;;;13.95;9.75;;;;;;;5.51;67.56;97775.59;1642392;87;27487;-85
2021/11/18 02:10:17;;;;;;;15.13;10.15;;;;;;;5.48;67.66;97785.30;1630976;87;25784;-86
2021/11/18 02:12:44;;;;;;;17.35;9.83;;;;;;;5.43;67.66;97786.63;1628999;87;25756;-86
2021/11/18 02:15:22;;;;;;;16.95;10.38;;;;;;;5.38;67.91;97782.31;1642388;87;26484;-85
2021/11/18 02:17:49;;;;;;;14.18;10.03;;;;;;;5.35;68.09;97784.48;1642442;86;25618;-85
2021/11/18 02:20:23;;;;;;;17.00;9.55;;;;;;;5.32;68.31;97779.45;1656829;86;27981;-85
2021/11/18 02:22:50;;;;;;;14.63;9.83;;;;;;;5.27;68.48;97763.92;1656571;86;25810;-86
2021/11/18 02:25:17;;;;;;;17.23;10.25;;;;;;;5.28;68.59;97762.92;1656724;86;25790;-86
2021/11/18 02:27:45;;;;;;;17.17;10.72;;;;;;;5.26;68.58;97768.11;1643624;86;25747;-85
2021/11/18 02:30:12;;;;;;;15.75;10.28;;;;;;;5.26;68.78;97775.63;1641425;87;25961;-85
2021/11/18 02:32:41;;;;;;;18.70;11.00;;;;;;;5.25;68.82;97773.95;1656704;86;27384;-85
2021/11/18 02:35:22;;;;;;;18.52;10.63;;;;;;;5.25;68.90;97776.63;1656603;86;25763;-85
2021/11/18 02:37:51;;;;;;;18.80;10.88;;;;;;;5.26;69.11;97781.48;1643668;87;25761;-85
2021/11/18 02:40:19;;;;;;;18.15;11.57;;;;;;;5.20;69.24;97785.66;1651724;86;25861;-85
2021/11/18 02:42:47;;;;;;;17.87;10.32;;;;;;;5.15;69.38;97786.69;1617402;87;25860;-86
2021/11/18 02:45:19;;;;;;;18.57;11.10;;;;;;;5.11;69.53;97802.73;1608253;88;27436;-86
2021/11/18 02:47:45;;;;;;;17.80;10.93;;;;;;;5.11;69.63;97803.23;1625681;88;25787;-85
2021/11/18 02:50:17;;;;;;;19.37;10.80;;;;;;;5.07;69.81;97796.87;1625598;88;25930;-85
2021/11/18 02:52:46;;;;;;;17.15;11.08;;;;;;;5.05;69.74;97792.71;1625770;88;26695;-86
2021/11/18 02:55:23;;;;;;;16.42;10.28;;;;;;;5.08;69.80;97788.34;1625509;88;25872;-86
2021/11/18 02:57:50;;;;;;;19.23;11.65;;;;;;;5.08;69.84;97783.83;1625716;87;27461;-84
2021/11/18 03:00:24;;;;;;;16.35;10.98;;;;;;;5.12;69.92;97781.66;1625568;88;25677;-85
2021/11/18 03:02:51;;;;;;;17.67;11.25;;;;;;;5.13;70.03;97781.16;1653701;86;26124;-84
2021/11/18 03:05:19;;;;;;;19.42;12.35;;;;;;;5.11;70.11;97787.17;1642879;87;26487;-84
2021/11/18 03:07:46;;;;;;;20.55;12.93;;;;;;;5.13;70.20;97792.70;1642985;87;25345;-84
2021/11/18 03:10:16;;;;;;;17.48;11.33;;;;;;;5.15;70.35;97789.86;1641362;87;28285;-85
2021/11/18 03:12:43;;;;;;;17.90;11.38;;;;;;;5.09;70.39;97795.37;1653802;86;25813;-85
2021/11/18 03:15:13;;;;;;;20.17;12.80;;;;;;;5.07;70.48;97798.73;1653762;86;25849;-84
2021/11/18 03:17:40;;;;;;;21.57;12.50;;;;;;;5.06;70.51;97799.73;1642955;86;26373;-85
2021/11/18 03:20:14;;;;;;;18.35;11.55;;;;;;;5.07;70.56;97805.43;1642994;87;25890;-85
2021/11/18 03:22:41;;;;;;;20.68;12.98;;;;;;;5.09;70.57;97808.75;1641415;87;27458;-85
2021/11/18 03:25:10;;;;;;;20.05;12.37;;;;;;;5.10;70.66;97811.76;1653622;86;26472;-84
2021/11/18 03:27:37;;;;;;;21.30;12.80;;;;;;;5.10;70.74;97807.75;1653758;86;25858;-84
2021/11/18 03:30:07;;;;;;;17.62;11.15;;;;;;;5.08;70.73;97809.75;1635862;87;25700;-84
2021/11/18 03:32:34;;;;;;;17.23;11.55;;;;;;;5.07;70.80;97811.59;1630180;87;25872;-84
2021/11/18 03:35:00;;;;;;;21.50;13.00;;;;;;;5.08;70.88;97820.45;1642872;86;27412;-84
2021/11/18 03:37:27;;;;;;;16.52;11.15;;;;;;;5.08;70.96;97817.77;1642528;87;25916;-84
2021/11/18 03:39:54;;;;;;;19.12;12.50;;;;;;;5.09;70.95;97820.78;1641394;87;25793;-84
2021/11/18 03:42:21;;;;;;;17.98;11.73;;;;;;;5.10;71.01;97822.46;1655033;86;25844;-84
2021/11/18 03:44:47;;;;;;;17.37;12.15;;;;;;;5.11;71.12;97817.45;1633565;86;25705;-84
2021/11/18 03:47:16;;;;;;;18.65;11.93;;;;;;;5.10;71.24;97813.09;1631570;86;27372;-84
2021/11/18 03:49:43;;;;;;;20.30;12.53;;;;;;;5.09;71.34;97816.77;1631294;87;26224;-84
2021/11/18 03:52:14;;;;;;;17.73;11.53;;;;;;;5.08;71.38;97811.09;1631488;87;25828;-85
2021/11/18 03:54:44;;;;;;;20.17;12.58;;;;;;;5.08;71.39;97810.59;1631433;87;26307;-86
2021/11/18 03:57:10;;;;;;;21.05;12.90;;;;;;;5.10;71.42;97813.09;1631469;87;25776;-85
2021/11/18 03:59:41;;;;;;;24.02;12.85;;;;;;;5.12;71.43;97823.14;1642949;86;27444;-85
2021/11/18 04:02:08;;;;;;;18.52;12.80;;;;;;;5.13;71.45;97821.30;1643521;86;25338;-85
2021/11/18 04:04:39;;;;;;;20.32;13.08;;;;;;;5.14;71.49;97818.96;1643565;87;26732;-84
2021/11/18 04:07:07;;;;;;;18.30;10.63;;;;;;;5.14;71.53;97821.14;1643830;86;26506;-85
2021/11/18 04:09:34;;;;;;;23.10;14.10;;;;;;;5.14;71.69;97818.45;1641390;87;25814;-85
2021/11/18 04:12:01;;;;;;;27.80;15.63;;;;;;;5.14;71.66;97809.09;1656702;86;28120;-85
2021/11/18 04:14:29;;;;;;;34.23;17.75;;;;;;;5.12;71.66;97808.42;1656567;85;25706;-85
2021/11/18 04:16:56;;;;;;;25.32;14.65;;;;;;;5.12;71.74;97813.77;1635484;86;25842;-86
2021/11/18 04:19:23;;;;;;;25.35;14.28;;;;;;;5.14;71.77;97821.14;1656735;86;26436;-86
2021/11/18 04:21:51;;;;;;;24.45;14.78;;;;;;;5.14;71.79;97818.45;1656576;86;25753;-85
2021/11/18 04:24:22;;;;;;;24.82;14.30;;;;;;;5.14;71.88;97819.80;1656556;86;27379;-85
2021/11/18 04:26:50;;;;;;;23.12;13.38;;;;;;;5.13;71.91;97819.46;1635235;86;25787;-85
2021/11/18 04:29:27;;;;;;;22.37;14.53;;;;;;;5.14;71.93;97818.96;1656581;86;25739;-86
2021/11/18 04:31:49;;;;;;;21.80;13.32;;;;;;;5.13;71.97;97822.14;1655955;86;25783;-86
2021/11/18 04:34:16;;;;;;;23.50;14.33;;;;;;;5.14;72.03;97821.14;1656619;86;25680;-86
2021/11/18 04:36:45;;;;;;;21.90;13.43;;;;;;;5.13;72.05;97817.28;1656552;86;27380;-85
2021/11/18 04:39:11;;;;;;;24.18;13.72;;;;;;;5.13;72.18;97814.61;1656508;86;25809;-85
2021/11/18 04:41:38;;;;;;;22.82;13.95;;;;;;;5.13;72.22;97814.11;1655923;86;25772;-85
2021/11/18 04:44:05;;;;;;;21.05;14.10;;;;;;;5.10;72.28;97810.42;1653484;86;26586;-85
2021/11/18 04:46:33;;;;;;;23.20;14.25;;;;;;;5.08;72.41;97813.76;1653779;86;25773;-85
2021/11/18 04:49:00;;;;;;;22.48;13.10;;;;;;;5.02;72.36;97817.12;1653618;86;27394;-86
2021/11/18 04:51:27;;;;;;;22.67;12.85;;;;;;;5.02;72.46;97819.80;1653675;86;25828;-86
2021/11/18 04:53:55;;;;;;;21.27;12.98;;;;;;;5.05;72.47;97823.48;1648999;86;25724;-85
2021/11/18 04:56:24;;;;;;;23.83;13.45;;;;;;;5.06;72.53;97829.17;1647454;86;26459;-85
2021/11/18 04:58:55;;;;;;;23.92;13.48;;;;;;;5.07;72.57;97832.19;1653798;86;26473;-85
2021/11/18 05:01:21;;;;;;;22.35;13.43;;;;;;;5.06;72.60;97829.17;1653676;86;27398;-86
2021/11/18 05:03:48;;;;;;;20.02;12.28;;;;;;;5.05;72.60;97827.00;1653676;86;25318;-85
2021/11/18 05:06:15;;;;;;;20.02;12.85;;;;;;;5.01;72.57;97826.14;1653727;86;25752;-86
2021/11/18 05:08:42;;;;;;;19.02;13.10;;;;;;;5.01;72.58;97839.02;1653804;86;26480;-84
2021/11/18 05:11:09;;;;;;;19.17;13.00;;;;;;;5.03;72.64;97836.19;1653779;86;25769;-85
2021/11/18 05:13:38;;;;;;;23.98;14.13;;;;;;;5.03;72.71;97834.84;1653682;86;27396;-84
2021/11/18 05:16:09;;;;;;;22.10;14.18;;;;;;;5.01;72.75;97842.20;1653658;86;25775;-85
2021/11/18 05:18:36;;;;;;;21.40;13.35;;;;;;;5.01;72.81;97843.53;1653635;86;25848;-85
2021/11/18 05:21:04;;;;;;;19.12;11.75;;;;;;;5.01;72.84;97843.53;1651183;86;26070;-85
2021/11/18 05:23:32;;;;;;;18.42;11.53;;;;;;;5.04;72.59;97846.72;1615205;88;25881;-84
2021/11/18 05:25:59;;;;;;;18.35;11.75;;;;;;;5.08;72.52;97846.70;1613412;88;26806;-85
2021/11/18 05:28:26;;;;;;;22.93;12.00;;;;;;;5.13;72.57;97846.22;1613163;88;25959;-85
2021/11/18 05:30:53;;;;;;;15.03;10.03;;;;;;;5.22;72.71;97851.06;1653647;86;25775;-85
2021/11/18 05:33:22;;;;;;;18.50;11.50;;;;;;;5.22;72.53;97849.23;1653696;86;26655;-84
2021/11/18 05:35:49;;;;;;;18.37;10.63;;;;;;;5.25;72.41;97852.08;1642877;87;25775;-85
2021/11/18 05:38:17;;;;;;;19.10;11.38;;;;;;;5.25;72.40;97853.42;1641384;87;27513;-85
2021/11/18 05:40:44;;;;;;;16.60;11.30;;;;;;;5.27;72.41;97854.93;1653628;86;25724;-85
2021/11/18 05:43:12;;;;;;;18.90;12.03;;;;;;;5.28;72.37;97855.27;1648631;86;25816;-85
2021/11/18 05:45:39;;;;;;;18.95;11.95;;;;;;;5.28;72.41;97860.63;1631441;87;26753;-85
2021/11/18 05:48:08;;;;;;;19.27;11.55;;;;;;;5.25;72.53;97860.95;1631324;87;25839;-85
2021/11/18 05:50:39;;;;;;;18.05;11.15;;;;;;;5.22;72.52;97866.63;1631372;87;27462;-85
2021/11/18 05:53:06;;;;;;;18.92;11.65;;;;;;;5.25;72.49;97866.80;1631194;87;25770;-85
2021/11/18 05:55:35;;;;;;;15.95;11.15;;;;;;;5.26;72.49;97866.64;1631356;86;25782;-85
2021/11/18 05:58:02;;;;;;;19.10;12.37;;;;;;;5.26;72.56;97869.31;1631366;86;26316;-85
2021/11/18 06:00:31;;;;;;;20.50;12.65;;;;;;;5.23;72.65;97871.48;1631396;87;26120;-85
2021/11/18 06:02:59;;;;;;;21.55;12.33;;;;;;;5.18;72.64;97874.67;1628233;86;27408;-85
2021/11/18 06:05:27;;;;;;;20.32;12.37;;;;;;;5.16;72.72;97883.36;1600664;88;26010;-85
2021/11/18 06:07:55;;;;;;;23.75;12.68;;;;;;;5.13;72.87;97893.05;1600536;89;25893;-85
2021/11/18 06:10:25;;;;;;;20.02;11.97;;;;;;;5.11;72.89;97893.71;1600585;89;25865;-84
2021/11/18 06:12:51;;;;;;;20.17;11.90;;;;;;;5.13;72.95;97901.08;1600706;89;25701;-85
2021/11/18 06:15:19;;;;;;;21.77;13.38;;;;;;;5.12;73.03;97900.74;1600543;89;28269;-85
2021/11/18 06:17:46;;;;;;;21.75;14.03;;;;;;;5.08;73.11;97900.22;1600675;88;25830;-84
2021/11/18 06:20:14;;;;;;;19.57;13.15;;;;;;;5.06;73.19;97902.25;1600547;89;25766;-85
2021/11/18 06:22:42;;;;;;;26.33;14.55;;;;;;;5.07;73.21;97903.91;1600797;89;26541;-85
2021/11/18 06:25:13;;;;;;;24.63;14.43;;;;;;;5.11;73.29;97911.11;1603191;88;25311;-85
2021/11/18 06:27:43;;;;;;;23.10;14.10;;;;;;;5.14;73.27;97909.45;1656809;86;27573;-85
2021/11/18 06:30:17;;;;;;;24.23;14.47;;;;;;;5.12;73.33;97903.92;1656552;85;25818;-86
2021/11/18 06:32:44;;;;;;;24.47;14.15;;;;;;;5.11;73.36;97915.13;1654205;86;25773;-84
2021/11/18 06:35:14;;;;;;;23.87;15.30;;;;;;;5.09;73.42;97915.78;1628431;87;26414;-85
2021/11/18 06:37:40;;;;;;;23.25;14.58;;;;;;;5.08;73.49;97922.13;1628546;87;25756;-84
2021/11/18 06:40:11;;;;;;;22.48;12.58;;;;;;;5.12;73.54;97925.33;1628387;88;27208;-85
2021/11/18 06:42:41;;;;;;;23.27;12.90;;;;;;;5.12;73.62;97922.16;1627443;88;26251;-84
2021/11/18 06:45:10;;;;;;;21.68;12.68;;;;;;;5.14;73.72;97925.50;1635613;87;26433;-85
2021/11/18 06:47:37;;;;;;;19.90;12.07;;;;;;;5.18;73.85;97936.23;1656761;86;25736;-84
2021/11/18 06:50:05;;;;;;;34.83;16.10;;;;;;;5.14;73.91;97933.53;1640062;86;25940;-85
2021/11/18 06:52:32;;;;;;;26.70;14.83;;;;;;;5.12;73.99;97939.55;1616039;88;28415;-85
2021/11/18 06:54:58;;;;;;;27.20;14.60;;;;;;;5.11;74.09;97945.89;1615974;88;25821;-86
2021/11/18 06:57:25;;;;;;;23.95;13.75;;;;;;;5.12;74.16;97950.25;1632355;87;25752;-86
2021/11/18 06:59:53;;;;;;;22.00;11.78;;;;;;;5.16;74.26;97950.27;1641540;87;25742;-86
2021/11/18 07:02:19;;;;;;;19.98;11.95;;;;;;;5.21;74.26;97953.77;1656713;86;25799;-86
2021/11/18 07:04:48;;;;;;;28.38;14.60;;;;;;;5.25;74.27;97953.29;1651052;86;28254;-86
2021/11/18 07:07:15;;;;;;;25.80;13.53;;;;;;;5.29;74.31;97963.17;1643471;86;25706;-85
2021/11/18 07:09:43;;;;;;;22.00;12.43;;;;;;;5.24;74.39;97956.13;1643597;87;26019;-85
2021/11/18 07:12:17;;;;;;;18.20;11.08;;;;;;;5.19;74.50;97959.31;1643682;87;26476;-86
2021/11/18 07:14:46;;;;;;;17.55;10.55;;;;;;;5.20;74.62;97964.98;1641582;87;25852;-86
2021/11/18 07:17:15;;;;;;;17.55;9.98;;;;;;;5.18;74.73;97956.30;1656553;86;27387;-86
2021/11/18 07:19:42;;;;;;;19.92;11.53;;;;;;;5.13;74.77;97959.95;1641211;86;26087;-86
2021/11/18 07:22:08;;;;;;;22.10;12.50;;;;;;;5.13;74.87;97955.10;1604652;87;25812;-86
2021/11/18 07:24:35;;;;;;;22.95;12.50;;;;;;;5.17;74.92;97959.14;1618587;87;26430;-86
2021/11/18 07:27:02;;;;;;;19.55;10.95;;;;;;;5.22;74.94;97953.61;1621153;87;26434;-85
2021/11/18 07:29:30;;;;;;;19.70;10.53;;;;;;;5.25;74.90;97952.45;1617746;87;27545;-86
2021/11/18 07:31:57;;;;;;;23.77;12.15;;;;;;;5.27;74.96;97955.31;1614824;87;25882;-86
2021/11/18 07:34:24;;;;;;;20.40;12.47;;;;;;;5.30;75.05;97956.33;1612822;87;25818;-86
2021/11/18 07:36:50;;;;;;;22.90;12.03;;;;;;;5.30;75.30;97961.68;1614753;87;25780;-86
2021/11/18 07:39:18;;;;;;;19.42;10.75;;;;;;;5.32;75.20;97965.00;1631343;86;25248;-86
2021/11/18 07:41:51;;;;;;;18.48;9.95;;;;;;;5.40;75.17;97959.68;1626512;86;28415;-86
2021/11/18 07:44:17;;;;;;;15.40;9.40;;;;;;;5.52;75.12;97962.03;1638584;86;25871;-85
2021/11/18 07:46:46;;;;;;;17.75;9.98;;;;;;;5.56;75.16;97952.64;1661484;85;25839;-86
2021/11/18 07:49:12;;;;;;;15.78;9.95;;;;;;;5.55;74.97;97960.38;1667633;85;25850;-86
2021/11/18 07:51:40;;;;;;;14.45;8.73;;;;;;;5.57;74.95;97954.32;1667264;85;26260;-86
2021/11/18 07:54:09;;;;;;;12.53;7.65;;;;;;;5.64;74.90;97953.50;1667947;85;27585;-86
2021/11/18 07:56:37;;;;;;;14.80;9.38;;;;;;;5.70;74.83;97951.48;1667416;85;25776;-85
2021/11/18 07:59:06;;;;;;;15.40;9.45;;;;;;;5.73;74.75;97952.99;1663552;84;25827;-86
2021/11/18 08:01:33;;;;;;;18.82;10.23;;;;;;;5.76;74.79;97954.00;1669385;84;25747;-86
2021/11/18 08:04:00;;;;;;;22.80;11.43;;;;;;;5.82;74.70;97957.34;1669074;84;26300;-86
2021/11/18 08:06:29;;;;;;;24.70;12.98;;;;;;;5.91;74.59;97960.41;1667448;84;28322;-86
2021/11/18 08:08:57;;;;;;;26.90;13.13;;;;;;;5.97;74.56;97952.17;1678127;84;25727;-86
2021/11/18 08:11:31;;;;;;;25.62;13.30;;;;;;;6.06;74.56;97952.49;1672468;84;25743;-86
2021/11/18 08:13:58;;;;;;;28.15;13.72;;;;;;;6.16;74.32;97955.02;1670749;84;25823;-86
2021/11/18 08:16:25;;;;;;;27.75;14.33;;;;;;;6.22;74.13;97956.50;1669591;84;25789;-86
2021/11/18 08:18:52;;;;;;;24.87;12.85;;;;;;;6.39;74.17;97952.78;1639106;86;27464;-86
2021/11/18 08:21:20;;;;;;;33.80;13.65;;;;;;;6.57;74.13;97955.23;1623029;87;25835;-86
2021/11/18 08:23:47;;;;;;;19.45;8.85;;;;;;;6.79;74.05;97955.81;1639990;86;25801;-86
2021/11/18 08:26:16;;;;;;;15.93;7.92;;;;;;;6.99;73.37;97956.24;1643343;86;26583;-86
2021/11/18 08:28:43;;;;;;;12.90;6.47;;;;;;;7.14;73.01;97946.91;1695394;84;25732;-86
2021/11/18 08:31:13;;;;;;;18.73;7.85;;;;;;;7.35;72.61;97957.05;1695245;84;27387;-87
2021/11/18 08:33:41;;;;;;;11.40;5.30;;;;;;;7.59;72.48;97958.23;1695266;84;26061;-87
2021/11/18 08:36:08;;;;;;;14.68;7.10;;;;;;;7.83;71.93;97957.20;1697876;84;26219;-87
2021/11/18 08:38:34;;;;;;;15.55;7.45;;;;;;;8.02;71.68;97959.37;1694332;84;26403;-87
2021/11/18 08:41:05;;;;;;;19.52;5.87;;;;;;;8.30;71.69;97960.45;1697347;84;25771;-87
2021/11/18 08:43:35;;;;;;;9.53;4.03;;;;;;;8.48;70.87;97962.81;1680900;84;26926;-88
2021/11/18 08:46:05;;;;;;;10.68;4.20;;;;;;;8.54;70.13;97958.56;1626442;88;25982;-87
2021/11/18 08:48:31;;;;;;;14.50;5.55;;;;;;;8.69;69.66;97958.57;1633321;86;25677;-87
2021/11/18 08:50:59;;;;;;;15.83;7.60;;;;;;;8.94;69.58;97960.75;1636503;87;25773;-88
2021/11/18 08:53:29;;;;;;;15.78;8.90;;;;;;;9.23;69.49;97953.66;1626065;87;25315;-87
2021/11/18 08:55:57;;;;;;;12.80;6.15;;;;;;;9.38;69.27;97951.77;1639554;87;27441;-87
2021/11/18 08:58:29;;;;;;;11.83;5.95;;;;;;;9.35;68.37;97953.48;1639435;86;25917;-87
2021/11/18 09:01:01;;;;;;;13.70;5.55;;;;;;;9.31;68.09;97950.84;1638194;87;25761;-86
2021/11/18 09:03:33;;;;;;;13.55;5.30;;;;;;;9.29;67.94;97950.22;1639539;87;25760;-86
2021/11/18 09:05:58;;;;;;;11.12;4.60;;;;;;;9.31;67.60;97952.19;1639427;87;25711;-86
2021/11/18 09:08:25;;;;;;;11.60;4.67;;;;;;;9.27;67.19;97961.69;1639212;87;27635;-86
2021/11/18 09:10:53;;;;;;;9.75;3.92;;;;;;;9.17;66.72;97964.69;1639372;87;25841;-86
2021/11/18 09:13:20;;;;;;;8.13;3.83;;;;;;;9.12;66.61;97967.10;1639521;86;25720;-85
2021/11/18 09:15:49;;;;;;;11.10;3.85;;;;;;;9.10;66.58;97975.04;1639491;87;26383;-86
2021/11/18 09:18:17;;;;;;;8.55;4.65;;;;;;;9.05;66.19;97966.71;1639697;87;26184;-86
2021/11/18 09:20:46;;;;;;;22.52;8.60;;;;;;;8.97;65.97;97967.63;1639570;86;27376;-85
2021/11/18 09:23:17;;;;;;;12.65;5.10;;;;;;;8.91;65.97;97969.23;1627022;87;25770;-87
2021/11/18 09:25:47;;;;;;;12.85;4.30;;;;;;;8.85;65.64;97962.39;1609704;87;25783;-86
2021/11/18 09:28:15;;;;;;;7.08;4.60;;;;;;;8.76;65.50;97966.21;1611911;87;26291;-85
2021/11/18 09:30:47;;;;;;;10.80;5.00;;;;;;;8.68;65.44;97971.19;1612892;87;25813;-86
2021/11/18 09:33:14;;;;;;;22.33;8.07;;;;;;;8.59;65.22;97966.39;1610737;87;27416;-88
2021/11/18 09:35:52;;;;;;;17.85;7.45;;;;;;;8.50;65.03;97970.70;1611340;87;26390;-86
2021/11/18 09:38:21;;;;;;;10.30;4.80;;;;;;;8.40;65.27;97979.05;1609230;86;25844;-86
2021/11/18 09:41:05;;;;;;;16.62;5.50;;;;;;;8.23;64.98;97981.02;1606490;87;26566;-87
2021/11/18 09:43:54;;;;;;;9.58;4.72;;;;;;;8.07;65.02;97979.84;1599723;87;25867;-86
2021/11/18 09:46:32;;;;;;;10.05;4.50;;;;;;;8.01;65.54;97985.09;1586769;89;28203;-86
2021/11/18 09:49:36;;;;;;;11.85;4.90;;;;;;;7.94;65.71;97987.17;1582911;90;25747;-87
2021/11/18 09:52:31;;;;;;;9.60;5.05;;;;;;;7.85;65.90;97996.30;1608059;88;25727;-85
2021/11/18 09:55:15;;;;;;;11.78;5.42;;;;;;;7.68;66.04;97997.45;1583272;88;25806;-86
2021/11/18 09:58:07;;;;;;;6.60;5.12;;;;;;;7.53;66.48;98009.46;1589960;88;25883;-88
2021/11/18 10:01:03;;;;;;;7.40;4.10;;;;;;;7.41;66.58;98017.59;1589347;88;27399;-87
2021/11/18 10:04:14;;;;;;;6.62;3.75;;;;;;;7.27;66.90;98016.99;1588082;88;25896;-87
2021/11/18 10:06:41;;;;;;;8.78;4.28;;;;;;;7.13;67.13;98007.83;1589215;88;25832;-86
2021/11/18 10:09:28;;;;;;;9.28;5.20;;;;;;;7.19;67.32;98021.06;1588132;89;25894;-86
2021/11/18 10:12:29;;;;;;;9.58;5.92;;;;;;;7.18;67.37;98012.17;1625065;87;25855;-86
2021/11/18 10:15:17;;;;;;;10.30;5.45;;;;;;;7.14;67.56;98014.03;1623073;87;27401;-85
2021/11/18 10:17:54;;;;;;;10.45;5.40;;;;;;;7.17;67.72;98014.53;1626968;87;25897;-85
2021/11/18 10:20:32;;;;;;;12.88;5.60;;;;;;;7.19;67.75;98005.80;1618099;87;25943;-85
2021/11/18 10:23:12;;;;;;;11.83;5.55;;;;;;;7.14;67.72;98011.34;1616874;87;25861;-86
2021/11/18 10:25:49;;;;;;;11.97;5.85;;;;;;;7.14;68.05;98012.19;1612485;87;26455;-85
2021/11/18 10:28:24;;;;;;;14.07;7.75;;;;;;;7.24;68.00;98007.97;1614030;87;27407;-85
2021/11/18 10:31:17;;;;;;;22.40;13.95;;;;;;;7.26;67.86;97999.20;1613059;87;25854;-86
2021/11/18 10:33:52;;;;;;;18.55;9.40;;;;;;;7.34;68.01;98003.72;1613230;87;25361;-86
2021/11/18 10:37:00;;;;;;;11.40;6.30;;;;;;;7.40;67.79;98003.83;1613748;88;25778;-85
2021/11/18 10:39:38;;;;;;;13.90;7.10;;;;;;;7.47;67.59;97986.01;1624863;87;25791;-85
2021/11/18 10:42:12;;;;;;;16.10;8.30;;;;;;;7.52;67.73;97986.80;1622123;87;28321;-85
2021/11/18 10:45:00;;;;;;;14.18;6.45;;;;;;;7.62;67.67;97981.19;1601951;86;25932;-87
2021/11/18 10:47:38;;;;;;;12.07;6.65;;;;;;;7.65;67.39;97973.62;1593317;89;26576;-87
2021/11/18 10:50:15;;;;;;;11.25;5.92;;;;;;;7.68;67.20;97973.77;1625087;86;25892;-87
2021/11/18 10:52:47;;;;;;;13.78;6.80;;;;;;;7.65;67.16;97972.78;1612421;87;26193;-86
2021/11/18 10:55:21;;;;;;;13.22;6.53;;;;;;;7.66;67.10;97961.02;1621881;87;28702;-86
2021/11/18 10:58:13;;;;;;;14.55;7.53;;;;;;;7.64;66.99;97962.53;1613331;87;25777;-86
2021/11/18 11:00:44;;;;;;;13.40;6.10;;;;;;;7.69;67.07;97960.16;1620202;87;25857;-85
2021/11/18 11:03:34;;;;;;;12.53;6.67;;;;;;;7.77;67.34;97965.97;1638277;87;25725;-86
2021/11/18 11:06:32;;;;;;;17.65;7.67;;;;;;;7.84;67.40;97975.00;1639476;87;25909;-84
2021/11/18 11:09:14;;;;;;;15.45;8.20;;;;;;;7.92;67.23;97966.86;1639721;87;27383;-86
2021/11/18 11:11:57;;;;;;;17.37;8.63;;;;;;;7.99;67.16;97966.45;1639636;87;25727;-86
2021/11/18 11:14:52;;;;;;;11.38;4.92;;;;;;;8.06;67.00;97958.00;1621190;87;26409;-86
2021/11/18 11:17:41;;;;;;;11.18;4.15;;;;;;;8.05;66.35;97975.15;1635529;87;25765;-85
2021/11/18 11:20:34;;;;;;;15.63;6.28;;;;;;;7.96;66.03;97970.87;1639042;87;25826;-85
2021/11/18 11:23:21;;;;;;;18.98;8.48;;;;;;;7.93;65.90;97969.38;1639783;87;27412;-85
2021/11/18 11:26:31;;;;;;;12.63;5.53;;;;;;;7.82;65.44;97970.30;1639168;87;25888;-86
2021/11/18 11:29:30;;;;;;;34.78;15.68;;;;;;;7.76;65.61;97970.50;1639824;87;25645;-84
2021/11/18 11:32:31;;;;;;;87.50;44.10;;;;;;;7.82;65.52;97967.63;1653497;86;26323;-86
2021/11/18 11:35:42;;;;;;;43.23;21.57;;;;;;;8.11;65.62;97962.81;1654022;86;25778;-86
2021/11/18 11:39:00;;;;;;;18.30;6.45;;;;;;;8.33;65.37;97947.70;1652870;86;27423;-86
2021/11/18 11:42:14;;;;;;;10.23;4.35;;;;;;;8.39;64.86;97952.33;1654039;86;25302;-85
2021/11/18 11:45:18;;;;;;;18.07;8.85;;;;;;;8.43;64.49;97937.50;1631247;86;36215;-85
2021/11/18 11:48:15;;;;;;;41.80;17.52;;;;;;;8.42;64.23;97932.62;1631308;87;25840;-85
2021/11/18 11:51:02;;;;;;;20.62;7.20;;;;;;;8.35;64.04;97928.15;1631651;86;25797;-85